Main page
METAR-TAF:

METAR-TAF

Airports :

Castres–Mazamet Airport

Castres, France

latitude: 43-33-25N, longitude: 2-17-21E, elevation: 239 m

Current weather observation

The report was made 49 minutes ago, at 04:30 UTC
Calm wind
Temperature 5°C
Humidity 81%
Pressure 1009 hPa
Visibility 10 km or more
no clouds below 1500 m and no cumulonimbus

METAR: LFCK 080430Z AUTO 00000KT CAVOK 05/02 Q1009

Time: 06:19 (05:19 UTC)

Forecast

The report was made 12 hours and 19 minutes ago, at 17:00 UTC
Forecast valid from 07 at 18 UTC to 08 at 03 UTC
Wind 3 kt from variable directions
Visibility 10 km or more
no clouds below 1500 m and no cumulonimbus
Becoming
from 07 at 22 UTC to 07 at 24 UTC
Wind 10 kt from the East/Southeast

TAF: LFCK 071700Z 0718/0803 VRB03KT CAVOK BECMG 0722/0724 12010KT

Weather observations and forecasts of more than 4000 airports (METAR and TAF reports).

The available stations are represented by yellow and red dots on the map.

Hover mouse over dot to see the name of the station.

Then click to see weather observations and forecasts.

To change the map : click on the green buttons with a black cross to zoom in, on the green button with a dash to zoom out, or on the green arrows for adjacent maps.


METAR-TAF: